Station: Nuernberg, ICAO: EDDN, Synop: Synop: 10763,
Koordinaten: 4930'00''N 01103'00''E, Hoehe: 318m, Entfernung: 14.41km
2017/12/15 04:20
EDDN 150420Z AUTO 24011KT //// R28/P2000N // ///////// 03/01 Q0994


Station: FEUCHT (USA-AF), ICAO: EDIG, Synop: Synop: 10764,
Koordinaten: 49 23 N 011 11 E, Hoehe: 386m, Entfernung: 29.87km


Station: Ansbach / Katterbach, ICAO: ETEB, Synop: Synop: 10755,
Koordinaten: 4919'00''N 01038'00''E, Hoehe: 467m, Entfernung: 32.42km
2017/12/15 04:11
ETEB 150411Z AUTO 24012G21KT 9999 OVC010 01/00 A2934 RMK AO2 SLP966 $


Station: Illesheim, ICAO: ETIK, Synop: Synop: 10752,
Koordinaten: 4928'00''N 01023'00''E, Hoehe: 325m, Entfernung: 37.04km
2017/12/15 03:56
ETIK 150356Z AUTO 24018G24KT 9999 FEW013 02/02 A2934 RMK AO2 PK WND 23027/32 SNE0259UPB0259E19 SLP949 P0001 T00180015 $


Station: ILLESHEIM (USAF), ICAO: EDIK, Synop: Synop: 10752,
Koordinaten: 49 28 N 010 23 E, Hoehe: 325m, Entfernung: 37.04km


Station: Roth, ICAO: ETHR, Synop: Synop: 10765,
Koordinaten: 4913'00''N 01106'00''E, Hoehe: 388m, Entfernung: 41.73km
2013/12/05 06:53
ETHR 050653Z 25004KT 1200 BR OVC003 02/02 Q1027 AMB


mehr Wetter
WetterInfo - adds.pl 2.6.003 DL3EL © 2004-2017 [154959]